createdAt,value
2022-12-24T00:01:05.626Z,136.80
2022-12-24T00:03:34.018Z,129.57
2022-12-24T00:06:05.750Z,140.50
2022-12-24T00:08:33.913Z,148.97
2022-12-24T00:11:01.786Z,154.17
2022-12-24T00:13:31.078Z,156.97
2022-12-24T00:15:58.956Z,149.90
2022-12-24T00:18:26.892Z,150.33
2022-12-24T00:20:55.773Z,143.63
2022-12-24T00:23:23.693Z,153.27
2022-12-24T00:25:51.538Z,156.40
2022-12-24T00:28:19.499Z,154.97
2022-12-24T00:30:48.747Z,152.33
2022-12-24T00:33:22.445Z,158.43
2022-12-24T00:35:53.862Z,169.80
2022-12-24T00:38:21.817Z,159.77
2022-12-24T00:40:49.675Z,161.20
2022-12-24T00:43:17.528Z,156.30
2022-12-24T00:45:45.497Z,167.77
2022-12-24T00:48:14.807Z,160.23
2022-12-24T00:50:42.707Z,150.97
2022-12-24T00:53:10.605Z,154.40
2022-12-24T00:55:38.449Z,147.97
2022-12-24T00:58:06.289Z,144.43
2022-12-24T01:00:34.309Z,160.80
2022-12-24T01:03:02.299Z,150.73
2022-12-24T01:05:31.939Z,164.57
2022-12-24T01:07:59.802Z,164.30
2022-12-24T01:10:27.744Z,162.43
2022-12-24T01:12:55.661Z,128.63
2022-12-24T01:15:23.624Z,148.43
2022-12-24T01:17:51.471Z,146.00
2022-12-24T01:20:19.519Z,137.47
2022-12-24T01:22:49.786Z,123.57
2022-12-24T01:25:17.719Z,128.83
2022-12-24T01:27:45.600Z,118.73
2022-12-24T01:30:15.858Z,125.93
2022-12-24T01:32:43.781Z,129.50
2022-12-24T01:35:12.529Z,137.93
2022-12-24T01:37:40.806Z,129.63
2022-12-24T01:40:33.941Z,124.27
2022-12-24T01:43:19.337Z,122.43
2022-12-24T01:45:51.835Z,123.13
2022-12-24T01:48:34.832Z,116.63
2022-12-24T01:51:07.675Z,131.47
2022-12-24T01:53:38.667Z,107.80
2022-12-24T01:56:10.744Z,121.70
2022-12-24T01:58:41.465Z,133.57
2022-12-24T02:01:09.488Z,136.17
2022-12-24T02:03:37.564Z,138.73
2022-12-24T02:06:06.428Z,133.57
2022-12-24T02:08:40.949Z,133.83
2022-12-24T02:11:16.233Z,129.63
2022-12-24T02:13:46.255Z,131.67
2022-12-24T02:16:26.753Z,127.27
2022-12-24T02:19:01.388Z,132.67
2022-12-24T02:21:49.581Z,129.17
2022-12-24T02:24:54.892Z,129.63
2022-12-24T02:27:33.601Z,124.03
2022-12-24T02:30:09.036Z,124.53
2022-12-24T02:32:47.076Z,120.57
2022-12-24T02:35:20.120Z,118.00
2022-12-24T02:37:54.322Z,118.03
2022-12-24T02:40:26.494Z,115.17
2022-12-24T02:42:59.538Z,122.10
2022-12-24T02:45:32.143Z,117.67
2022-12-24T02:48:01.300Z,116.00
2022-12-24T02:50:29.547Z,112.57
2022-12-24T02:52:57.383Z,110.07
2022-12-24T02:55:35.594Z,111.27
2022-12-24T02:58:16.572Z,113.63
2022-12-24T03:00:55.132Z,112.10
2022-12-24T03:03:38.009Z,114.63
2022-12-24T03:06:15.859Z,113.80
2022-12-24T03:08:50.135Z,114.20
2022-12-24T03:11:19.274Z,114.13
2022-12-24T03:13:48.855Z,109.40
2022-12-24T03:16:24.645Z,107.80
2022-12-24T03:18:54.941Z,98.47
2022-12-24T03:21:26.669Z,97.63
2022-12-24T03:23:56.737Z,97.67
2022-12-24T03:26:26.753Z,97.03
2022-12-24T03:28:56.811Z,94.63
2022-12-24T03:31:26.256Z,89.87
2022-12-24T03:33:54.185Z,101.07
2022-12-24T03:36:22.195Z,100.80
2022-12-24T03:38:50.037Z,98.60
2022-12-24T03:41:17.899Z,95.93
2022-12-24T03:43:45.758Z,99.87
2022-12-24T03:46:13.705Z,94.57
2022-12-24T03:48:42.952Z,96.20
2022-12-24T03:51:18.839Z,93.70
2022-12-24T03:53:46.764Z,95.33
2022-12-24T03:56:14.836Z,97.47
2022-12-24T03:58:42.716Z,93.97
2022-12-24T04:01:10.698Z,90.73
2022-12-24T04:03:38.663Z,90.73
2022-12-24T04:06:10.166Z,90.03
2022-12-24T04:08:38.172Z,88.90
2022-12-24T04:11:09.943Z,95.03
2022-12-24T04:13:38.280Z,91.53
2022-12-24T04:16:08.607Z,93.83
2022-12-24T04:18:37.132Z,95.57
2022-12-24T04:21:05.843Z,97.70
2022-12-24T04:23:37.290Z,94.40
2022-12-24T04:26:07.645Z,90.00
2022-12-24T04:28:36.404Z,90.40
2022-12-24T04:31:06.448Z,88.67
2022-12-24T04:33:34.387Z,90.17
2022-12-24T04:36:04.434Z,77.90
2022-12-24T04:38:32.393Z,76.70
2022-12-24T04:41:04.598Z,71.83
2022-12-24T04:43:32.891Z,72.80
2022-12-24T04:46:06.167Z,72.17
2022-12-24T04:48:34.337Z,71.57
2022-12-24T04:51:03.658Z,62.70
2022-12-24T04:53:31.884Z,60.23
2022-12-24T04:56:01.412Z,63.53
2022-12-24T04:58:29.644Z,59.07
2022-12-24T05:00:57.599Z,64.30
2022-12-24T05:03:25.542Z,58.53
2022-12-24T05:05:59.595Z,59.13
2022-12-24T05:08:29.237Z,56.83
2022-12-24T05:10:58.067Z,52.93
2022-12-24T05:13:36.558Z,53.27
2022-12-24T05:16:08.700Z,52.33
2022-12-24T05:18:36.640Z,51.10
2022-12-24T05:21:04.566Z,54.30
2022-12-24T05:23:50.119Z,53.47
2022-12-24T05:26:24.392Z,52.23
2022-12-24T05:28:55.620Z,47.40
2022-12-24T05:31:25.125Z,47.90
2022-12-24T05:33:54.884Z,47.70
2022-12-24T05:36:24.728Z,48.87
2022-12-24T05:38:53.254Z,49.10
2022-12-24T05:41:21.548Z,49.00
2022-12-24T05:43:49.450Z,49.13
2022-12-24T05:46:21.066Z,47.40
2022-12-24T05:48:49.883Z,51.60
2022-12-24T05:51:19.771Z,49.33
2022-12-24T05:53:48.472Z,50.70
2022-12-24T05:56:17.928Z,50.73
2022-12-24T05:58:46.427Z,51.87
2022-12-24T06:01:15.315Z,50.00
2022-12-24T06:03:44.654Z,51.23
2022-12-24T06:06:14.706Z,54.70
2022-12-24T06:08:43.321Z,50.43
2022-12-24T06:11:13.693Z,46.80
2022-12-24T06:13:42.583Z,44.70
2022-12-24T06:16:16.194Z,44.30
2022-12-24T06:18:45.971Z,42.63
2022-12-24T06:21:14.346Z,44.87
2022-12-24T06:23:44.001Z,47.50
2022-12-24T06:26:14.314Z,44.90
2022-12-24T06:28:42.725Z,76.93
2022-12-24T06:31:14.342Z,70.30
2022-12-24T06:33:42.677Z,66.83
2022-12-24T06:36:17.688Z,70.03
2022-12-24T06:38:46.387Z,70.63
2022-12-24T06:41:14.508Z,84.07
2022-12-24T06:43:45.134Z,82.07
2022-12-24T06:46:13.384Z,86.20
2022-12-24T06:48:41.296Z,76.67
2022-12-24T06:51:09.155Z,70.27
2022-12-24T06:53:38.469Z,73.87
2022-12-24T06:56:08.309Z,58.97
2022-12-24T06:58:36.776Z,65.37
2022-12-24T07:01:05.838Z,73.50
2022-12-24T07:03:34.613Z,67.70
2022-12-24T07:06:02.657Z,65.83
2022-12-24T07:08:33.596Z,69.10
2022-12-24T07:11:03.313Z,73.70
2022-12-24T07:13:32.181Z,76.03
2022-12-24T07:16:01.102Z,82.10
2022-12-24T07:18:29.250Z,73.43
2022-12-24T07:20:57.144Z,67.03
2022-12-24T07:23:25.303Z,69.03
2022-12-24T07:25:53.173Z,79.67
2022-12-24T07:28:27.475Z,83.80
2022-12-24T07:30:56.324Z,76.57
2022-12-24T07:33:24.854Z,76.33
2022-12-24T07:35:59.372Z,70.10
2022-12-24T07:38:27.362Z,61.43
2022-12-24T07:40:55.380Z,59.67
2022-12-24T07:43:24.689Z,69.67
2022-12-24T07:45:55.587Z,62.37
2022-12-24T07:48:23.684Z,57.20
2022-12-24T07:50:51.825Z,57.87
2022-12-24T07:53:19.802Z,55.37
2022-12-24T07:55:47.718Z,56.33
2022-12-24T07:58:15.609Z,55.53
2022-12-24T08:00:44.901Z,59.50
2022-12-24T08:03:18.898Z,58.80
2022-12-24T08:05:47.133Z,64.73
2022-12-24T08:08:15.449Z,67.77
2022-12-24T08:10:44.314Z,61.57
2022-12-24T08:13:12.293Z,66.03
2022-12-24T08:15:40.203Z,64.50
2022-12-24T08:18:10.109Z,60.53
2022-12-24T08:20:39.782Z,59.23
2022-12-24T08:23:08.082Z,59.77
2022-12-24T08:25:36.587Z,59.67
2022-12-24T08:28:04.684Z,55.97
2022-12-24T08:30:32.746Z,57.37
2022-12-24T08:33:00.571Z,56.77
2022-12-24T08:35:30.076Z,53.93
2022-12-24T08:37:58.085Z,52.03
2022-12-24T08:40:26.011Z,52.40
2022-12-24T08:42:53.968Z,52.30
2022-12-24T08:45:21.994Z,49.83
2022-12-24T08:47:50.031Z,45.33
2022-12-24T08:50:17.987Z,50.93
2022-12-24T08:52:47.257Z,46.07
2022-12-24T08:55:15.144Z,43.90
2022-12-24T08:57:44.346Z,44.23
2022-12-24T09:00:14.412Z,45.33
2022-12-24T09:02:42.354Z,47.40
2022-12-24T09:05:10.844Z,49.67
2022-12-24T09:07:38.770Z,48.07
2022-12-24T09:10:09.558Z,46.10
2022-12-24T09:12:37.431Z,45.47
2022-12-24T09:15:08.226Z,44.90
2022-12-24T09:17:36.863Z,45.93
2022-12-24T09:20:06.901Z,44.77
2022-12-24T09:22:35.887Z,45.47
2022-12-24T09:25:04.863Z,44.73
2022-12-24T09:27:34.242Z,44.17
2022-12-24T09:30:02.117Z,42.70
2022-12-24T09:32:30.013Z,42.93
2022-12-24T09:34:57.870Z,42.67
2022-12-24T09:37:25.772Z,43.50
2022-12-24T09:39:53.896Z,40.83
2022-12-24T09:42:38.149Z,40.47
2022-12-24T09:45:17.056Z,36.63
2022-12-24T09:47:49.783Z,35.40
2022-12-24T09:50:32.603Z,35.70
2022-12-24T09:53:04.072Z,36.73
2022-12-24T09:55:34.932Z,35.77
2022-12-24T09:58:06.122Z,37.73
2022-12-24T10:00:39.761Z,34.87
2022-12-24T10:03:16.120Z,35.73
2022-12-24T10:05:48.882Z,33.03
2022-12-24T10:08:24.913Z,35.90
2022-12-24T10:10:55.477Z,34.90
2022-12-24T10:13:39.262Z,35.63
2022-12-24T10:16:19.345Z,36.03
2022-12-24T10:18:55.472Z,34.37
2022-12-24T10:21:34.711Z,36.20
2022-12-24T10:24:09.111Z,36.37
2022-12-24T10:26:45.240Z,37.83
2022-12-24T10:29:18.833Z,35.90
2022-12-24T10:31:54.971Z,41.03
2022-12-24T10:34:25.410Z,40.43
2022-12-24T10:36:53.576Z,38.30
2022-12-24T10:39:25.258Z,36.33
2022-12-24T10:41:57.709Z,43.57
2022-12-24T10:44:28.971Z,37.27
2022-12-24T10:46:59.468Z,38.43
2022-12-24T10:49:36.332Z,40.57
2022-12-24T10:52:07.274Z,41.73
2022-12-24T10:54:39.455Z,42.97
2022-12-24T10:57:24.341Z,43.83
2022-12-24T10:59:55.076Z,41.17
2022-12-24T11:02:30.213Z,41.33
2022-12-24T11:05:00.247Z,42.97
2022-12-24T11:07:29.674Z,44.00
2022-12-24T11:09:59.616Z,42.07
2022-12-24T11:12:30.771Z,43.40
2022-12-24T11:15:04.457Z,41.17
2022-12-24T11:17:34.965Z,41.77
2022-12-24T11:20:04.188Z,42.23
2022-12-24T11:22:33.967Z,44.40
2022-12-24T11:25:05.525Z,45.93
2022-12-24T11:27:44.289Z,42.93
2022-12-24T11:30:27.795Z,46.90
2022-12-24T11:33:20.784Z,45.97
2022-12-24T11:35:53.288Z,43.00
2022-12-24T11:38:24.059Z,41.30
2022-12-24T11:41:00.330Z,41.07
2022-12-24T11:43:44.473Z,41.03
2022-12-24T11:46:15.923Z,47.33
2022-12-24T11:48:45.794Z,49.43
2022-12-24T11:51:28.142Z,44.83
2022-12-24T11:54:07.291Z,44.37
2022-12-24T11:56:40.197Z,42.47
2022-12-24T11:59:18.106Z,44.57
2022-12-24T12:01:53.901Z,43.33
2022-12-24T12:04:25.865Z,35.23
2022-12-24T12:06:58.558Z,36.43
2022-12-24T12:09:31.421Z,32.97
2022-12-24T12:12:06.170Z,33.67
2022-12-24T12:14:39.317Z,35.30
2022-12-24T12:17:20.056Z,33.83
2022-12-24T12:19:59.156Z,34.43
2022-12-24T12:22:31.581Z,34.40
2022-12-24T12:25:02.106Z,33.80
2022-12-24T12:27:35.058Z,35.73
2022-12-24T12:30:06.665Z,36.20
2022-12-24T12:32:47.134Z,36.80
2022-12-24T12:35:24.282Z,36.63
2022-12-24T12:37:58.252Z,36.13
2022-12-24T12:40:37.534Z,37.43
2022-12-24T12:43:24.686Z,37.87
2022-12-24T12:45:58.988Z,39.20
2022-12-24T12:48:47.727Z,39.47
2022-12-24T12:51:23.971Z,38.10
2022-12-24T12:54:14.362Z,38.97
2022-12-24T12:56:48.405Z,36.33
2022-12-24T12:59:21.810Z,37.87
2022-12-24T13:01:56.882Z,37.47
2022-12-24T13:04:53.684Z,36.90
2022-12-24T13:07:58.946Z,37.63
2022-12-24T13:10:53.156Z,35.87
2022-12-24T13:13:49.901Z,35.83
2022-12-24T13:16:36.743Z,36.23
2022-12-24T13:19:24.982Z,34.10
2022-12-24T13:21:55.973Z,35.00
2022-12-24T13:24:28.366Z,35.67
2022-12-24T13:27:07.786Z,35.43
2022-12-24T13:29:45.369Z,36.03
2022-12-24T13:32:51.241Z,35.30
2022-12-24T13:35:37.859Z,35.63
2022-12-24T13:38:35.642Z,35.63
2022-12-24T13:41:55.039Z,36.30
2022-12-24T13:44:36.274Z,37.00
2022-12-24T13:47:32.807Z,41.27
2022-12-24T13:50:19.944Z,45.97
2022-12-24T13:52:53.482Z,50.30
2022-12-24T13:55:21.722Z,49.70
2022-12-24T13:57:59.877Z,47.97
2022-12-24T14:00:53.607Z,47.20
2022-12-24T14:03:32.224Z,49.90
2022-12-24T14:06:04.145Z,48.10
2022-12-24T14:08:38.346Z,51.57
2022-12-24T14:11:10.611Z,51.97
2022-12-24T14:14:13.848Z,48.30
2022-12-24T14:16:52.374Z,50.97
2022-12-24T14:19:23.931Z,51.03
2022-12-24T14:21:59.152Z,52.60
2022-12-24T14:24:32.578Z,54.67
2022-12-24T14:27:14.963Z,54.47
2022-12-24T14:29:51.189Z,58.10
2022-12-24T14:32:20.887Z,67.13
2022-12-24T14:35:05.544Z,75.20
2022-12-24T14:37:34.945Z,74.53
2022-12-24T14:40:03.265Z,76.00
2022-12-24T14:42:40.140Z,72.97
2022-12-24T14:45:19.942Z,74.37
2022-12-24T14:48:00.456Z,79.47
2022-12-24T14:50:52.184Z,63.67
2022-12-24T14:53:29.580Z,64.67
2022-12-24T14:55:57.403Z,61.20
2022-12-24T14:58:31.669Z,60.27
2022-12-24T15:01:01.240Z,56.70
2022-12-24T15:03:33.086Z,55.57
2022-12-24T15:06:05.169Z,52.80
2022-12-24T15:08:37.756Z,64.27
2022-12-24T15:11:08.318Z,60.43
2022-12-24T15:13:38.707Z,53.77
2022-12-24T15:16:09.274Z,53.13
2022-12-24T15:18:43.116Z,56.50
2022-12-24T15:21:19.278Z,63.90
2022-12-24T15:23:49.700Z,57.13
2022-12-24T15:26:24.279Z,69.50
2022-12-24T15:28:58.256Z,60.40
2022-12-24T15:31:30.834Z,59.63
2022-12-24T15:34:00.630Z,54.47
2022-12-24T15:36:32.506Z,53.37
2022-12-24T15:39:03.291Z,52.93
2022-12-24T15:41:59.089Z,55.77
2022-12-24T15:44:28.068Z,55.63
2022-12-24T15:47:00.861Z,59.17
2022-12-24T15:49:32.239Z,56.67
2022-12-24T15:52:06.712Z,56.43
2022-12-24T15:54:34.967Z,51.77
2022-12-24T15:57:15.068Z,52.70
2022-12-24T15:59:43.108Z,53.27
2022-12-24T16:02:33.535Z,51.10
2022-12-24T16:05:31.215Z,53.23
2022-12-24T16:08:08.660Z,51.67
2022-12-24T16:10:39.982Z,51.33
2022-12-24T16:13:17.381Z,49.83
2022-12-24T16:15:53.787Z,86.17
2022-12-24T16:18:26.484Z,132.23
2022-12-24T16:20:57.721Z,160.77
2022-12-24T16:23:31.341Z,127.30
2022-12-24T16:26:00.241Z,105.63
2022-12-24T16:28:28.138Z,99.20
2022-12-24T16:30:56.901Z,80.43
2022-12-24T16:33:24.906Z,64.13
2022-12-24T16:35:52.928Z,56.00
2022-12-24T16:38:22.223Z,54.83
2022-12-24T16:40:50.264Z,49.87
2022-12-24T16:43:35.492Z,50.33
2022-12-24T16:46:05.327Z,49.37
2022-12-24T16:48:36.405Z,50.37
2022-12-24T16:51:04.391Z,51.00
2022-12-24T16:53:34.048Z,52.27
2022-12-24T16:56:02.744Z,55.60
2022-12-24T16:58:30.611Z,54.50
2022-12-24T17:00:59.791Z,54.27
2022-12-24T17:03:27.772Z,54.60
2022-12-24T17:05:55.742Z,54.80
2022-12-24T17:08:23.587Z,60.60
2022-12-24T17:10:53.233Z,55.87
2022-12-24T17:13:21.108Z,57.63
2022-12-24T17:15:49.063Z,67.90
2022-12-24T17:18:17.656Z,64.00
2022-12-24T17:20:45.569Z,63.07
2022-12-24T17:23:13.573Z,67.67
2022-12-24T17:25:41.482Z,48.50
2022-12-24T17:28:10.762Z,35.53
2022-12-24T17:30:41.001Z,30.07
2022-12-24T17:33:14.382Z,26.47
2022-12-24T17:35:43.614Z,20.30
2022-12-24T17:38:11.662Z,18.37
2022-12-24T17:40:39.465Z,15.63
2022-12-24T17:43:07.350Z,13.90
2022-12-24T17:45:41.311Z,12.63
2022-12-24T17:48:09.289Z,14.20
2022-12-24T17:50:39.895Z,13.47
2022-12-24T17:53:07.902Z,14.17
2022-12-24T17:55:35.807Z,13.03
2022-12-24T17:58:03.626Z,13.47
2022-12-24T18:00:33.380Z,14.07
2022-12-24T18:03:03.070Z,13.80
2022-12-24T18:05:31.054Z,13.03
2022-12-24T18:07:58.873Z,13.87
2022-12-24T18:10:26.791Z,13.90
2022-12-24T18:12:55.109Z,13.07
2022-12-24T18:15:23.436Z,13.17
2022-12-24T18:17:53.427Z,14.37
2022-12-24T18:20:23.474Z,14.03
2022-12-24T18:22:51.367Z,14.53
2022-12-24T18:25:20.174Z,13.40
2022-12-24T18:27:48.182Z,13.83
2022-12-24T18:30:22.909Z,13.17
2022-12-24T18:32:53.834Z,14.70
2022-12-24T18:35:23.050Z,14.30
2022-12-24T18:37:50.983Z,15.60
2022-12-24T18:40:20.521Z,13.23
2022-12-24T18:42:48.404Z,12.93
2022-12-24T18:45:16.324Z,13.47
2022-12-24T18:47:44.140Z,12.67
2022-12-24T18:50:12.168Z,13.43
2022-12-24T18:52:41.447Z,13.83
2022-12-24T18:55:10.492Z,14.53
2022-12-24T18:57:38.355Z,13.90
2022-12-24T19:00:08.131Z,14.60
2022-12-24T19:02:36.139Z,15.00
2022-12-24T19:05:04.131Z,14.43
2022-12-24T19:07:32.043Z,14.67
2022-12-24T19:10:01.346Z,15.67
2022-12-24T19:12:29.255Z,13.87
2022-12-24T19:14:57.157Z,12.77
2022-12-24T19:17:25.076Z,13.40
2022-12-24T19:19:52.928Z,13.63
2022-12-24T19:22:21.099Z,10.83
2022-12-24T19:24:50.654Z,11.13
2022-12-24T19:27:19.873Z,11.60
2022-12-24T19:29:47.887Z,11.00
2022-12-24T19:32:15.853Z,12.97
2022-12-24T19:34:43.756Z,11.07
2022-12-24T19:37:11.647Z,9.53
2022-12-24T19:39:39.489Z,9.83
2022-12-24T19:42:07.421Z,12.60
2022-12-24T19:44:36.704Z,9.80
2022-12-24T19:47:04.629Z,9.53
2022-12-24T19:49:32.480Z,11.03
2022-12-24T19:52:00.358Z,10.50
2022-12-24T19:54:28.310Z,10.87
2022-12-24T19:56:56.197Z,9.27
2022-12-24T19:59:24.097Z,10.30
2022-12-24T20:01:54.331Z,9.53
2022-12-24T20:04:22.422Z,10.53
2022-12-24T20:06:54.693Z,11.57
2022-12-24T20:09:25.932Z,10.40
2022-12-24T20:11:53.785Z,8.93
2022-12-24T20:14:21.677Z,8.90
2022-12-24T20:16:50.096Z,8.47
2022-12-24T20:19:19.415Z,8.90
2022-12-24T20:21:47.271Z,8.77
2022-12-24T20:24:15.445Z,8.90
2022-12-24T20:26:43.800Z,11.17
2022-12-24T20:29:12.175Z,10.80
2022-12-24T20:31:40.959Z,9.67
2022-12-24T20:34:09.231Z,10.53
2022-12-24T20:36:38.856Z,10.57
2022-12-24T20:39:07.972Z,11.23
2022-12-24T20:41:36.873Z,8.77
2022-12-24T20:44:05.108Z,8.67
2022-12-24T20:46:33.572Z,10.27
2022-12-24T20:49:01.639Z,10.70
2022-12-24T20:51:29.856Z,10.37
2022-12-24T20:54:01.448Z,11.37
2022-12-24T20:56:30.828Z,9.73
2022-12-24T20:59:01.870Z,9.97
2022-12-24T21:01:30.496Z,10.10
2022-12-24T21:04:04.745Z,9.77
2022-12-24T21:06:33.655Z,9.83
2022-12-24T21:09:03.794Z,10.83
2022-12-24T21:11:49.175Z,10.63
2022-12-24T21:14:18.508Z,11.00
2022-12-24T21:16:47.068Z,12.27
2022-12-24T21:19:18.513Z,11.67
2022-12-24T21:21:47.063Z,12.47
2022-12-24T21:24:17.132Z,12.37
2022-12-24T21:26:45.246Z,13.23
2022-12-24T21:29:14.668Z,12.40
2022-12-24T21:31:43.191Z,15.30
2022-12-24T21:34:11.071Z,14.70
2022-12-24T21:36:38.989Z,13.90
2022-12-24T21:39:06.881Z,15.13
2022-12-24T21:41:36.125Z,12.27
2022-12-24T21:44:04.151Z,13.63
2022-12-24T21:46:32.256Z,12.30
2022-12-24T21:49:17.525Z,11.20
2022-12-24T21:51:48.870Z,9.53
2022-12-24T21:54:30.658Z,11.80
2022-12-24T21:57:24.692Z,10.43
2022-12-24T21:59:54.120Z,14.27
2022-12-24T22:02:26.697Z,14.20
2022-12-24T22:04:55.284Z,11.57
2022-12-24T22:07:43.274Z,12.00
2022-12-24T22:10:29.635Z,14.57
2022-12-24T22:13:00.086Z,12.83
2022-12-24T22:15:28.328Z,14.10
2022-12-24T22:17:56.152Z,13.47
2022-12-24T22:20:24.092Z,10.57
2022-12-24T22:22:52.007Z,11.83
2022-12-24T22:25:19.920Z,11.53
2022-12-24T22:27:47.770Z,10.20
2022-12-24T22:30:17.225Z,11.40
2022-12-24T22:32:45.092Z,11.47
2022-12-24T22:35:13.378Z,12.40
2022-12-24T22:37:41.348Z,9.53
2022-12-24T22:40:10.904Z,10.03
2022-12-24T22:42:38.785Z,9.47
2022-12-24T22:45:07.741Z,8.60
2022-12-24T22:47:37.067Z,9.37
2022-12-24T22:50:05.522Z,8.87
2022-12-24T22:52:34.491Z,9.13
2022-12-24T22:55:03.039Z,9.10
2022-12-24T22:57:30.949Z,9.30
2022-12-24T22:59:58.830Z,11.17
2022-12-24T23:02:28.648Z,10.13
2022-12-24T23:04:58.408Z,9.20
2022-12-24T23:07:26.346Z,9.70
2022-12-24T23:09:54.193Z,9.63
2022-12-24T23:12:42.031Z,12.13
2022-12-24T23:15:09.739Z,11.20
2022-12-24T23:17:37.607Z,12.50
2022-12-24T23:20:08.164Z,12.10
2022-12-24T23:22:36.071Z,12.43
2022-12-24T23:25:03.976Z,12.97
2022-12-24T23:27:31.863Z,13.87
2022-12-24T23:29:59.767Z,19.67
2022-12-24T23:32:27.661Z,13.97
2022-12-24T23:34:55.559Z,12.47
2022-12-24T23:37:29.569Z,13.40
2022-12-24T23:40:00.977Z,40.17
2022-12-24T23:42:28.815Z,75.67
2022-12-24T23:44:56.686Z,104.40
2022-12-24T23:47:24.592Z,107.77
2022-12-24T23:49:52.464Z,101.47
2022-12-24T23:52:20.425Z,86.67
2022-12-24T23:54:49.689Z,55.50
2022-12-24T23:57:17.579Z,40.00
2022-12-24T23:59:45.767Z,47.60
